sensor_id;sensor_type;location;lat;lon;timestamp;P1;durP1;ratioP1;P2;durP2;ratioP2
77051;SDS011;65980;44.898;8.602;2023-10-31T00:02:47;20.90;;;13.45;;
77051;SDS011;65980;44.898;8.602;2023-10-31T00:05:52;24.42;;;14.23;;
77051;SDS011;65980;44.898;8.602;2023-10-31T00:12:00;19.55;;;12.65;;
77051;SDS011;65980;44.898;8.602;2023-10-31T00:15:04;23.77;;;14.88;;
77051;SDS011;65980;44.898;8.602;2023-10-31T00:18:09;22.95;;;14.20;;
77051;SDS011;65980;44.898;8.602;2023-10-31T00:21:14;22.45;;;13.43;;
77051;SDS011;65980;44.898;8.602;2023-10-31T00:24:18;19.90;;;13.27;;
77051;SDS011;65980;44.898;8.602;2023-10-31T00:27:23;21.65;;;13.43;;
77051;SDS011;65980;44.898;8.602;2023-10-31T00:30:27;23.42;;;14.00;;
77051;SDS011;65980;44.898;8.602;2023-10-31T00:33:31;19.27;;;12.57;;
77051;SDS011;65980;44.898;8.602;2023-10-31T00:36:36;21.85;;;13.43;;
77051;SDS011;65980;44.898;8.602;2023-10-31T00:39:40;20.90;;;13.35;;
77051;SDS011;65980;44.898;8.602;2023-10-31T00:48:52;23.10;;;13.52;;
77051;SDS011;65980;44.898;8.602;2023-10-31T00:51:56;24.80;;;14.65;;
77051;SDS011;65980;44.898;8.602;2023-10-31T00:55:00;24.17;;;14.93;;
77051;SDS011;65980;44.898;8.602;2023-10-31T00:58:04;26.95;;;15.57;;
77051;SDS011;65980;44.898;8.602;2023-10-31T01:01:08;27.42;;;15.98;;
77051;SDS011;65980;44.898;8.602;2023-10-31T01:04:12;30.58;;;15.48;;
77051;SDS011;65980;44.898;8.602;2023-10-31T01:07:16;23.77;;;14.25;;
77051;SDS011;65980;44.898;8.602;2023-10-31T01:10:21;23.63;;;14.30;;
77051;SDS011;65980;44.898;8.602;2023-10-31T01:13:26;22.50;;;14.43;;
77051;SDS011;65980;44.898;8.602;2023-10-31T01:16:30;27.67;;;14.77;;
77051;SDS011;65980;44.898;8.602;2023-10-31T01:19:34;21.55;;;14.02;;
77051;SDS011;65980;44.898;8.602;2023-10-31T01:22:38;21.92;;;13.75;;
77051;SDS011;65980;44.898;8.602;2023-10-31T01:25:42;21.98;;;14.20;;
77051;SDS011;65980;44.898;8.602;2023-10-31T01:28:46;24.33;;;14.05;;
77051;SDS011;65980;44.898;8.602;2023-10-31T01:31:50;24.38;;;14.60;;
77051;SDS011;65980;44.898;8.602;2023-10-31T01:34:54;22.33;;;14.00;;
77051;SDS011;65980;44.898;8.602;2023-10-31T01:41:02;20.00;;;13.23;;
77051;SDS011;65980;44.898;8.602;2023-10-31T01:44:07;22.23;;;12.10;;
77051;SDS011;65980;44.898;8.602;2023-10-31T01:47:11;20.52;;;12.73;;
77051;SDS011;65980;44.898;8.602;2023-10-31T01:50:15;23.92;;;12.50;;
77051;SDS011;65980;44.898;8.602;2023-10-31T01:53:20;19.63;;;12.10;;
77051;SDS011;65980;44.898;8.602;2023-10-31T01:56:24;17.65;;;12.02;;
77051;SDS011;65980;44.898;8.602;2023-10-31T01:59:30;17.85;;;11.93;;
77051;SDS011;65980;44.898;8.602;2023-10-31T02:02:35;18.23;;;10.95;;
77051;SDS011;65980;44.898;8.602;2023-10-31T02:05:41;17.98;;;11.95;;
77051;SDS011;65980;44.898;8.602;2023-10-31T02:08:47;16.67;;;11.38;;
77051;SDS011;65980;44.898;8.602;2023-10-31T02:11:51;19.02;;;12.48;;
77051;SDS011;65980;44.898;8.602;2023-10-31T02:14:55;16.30;;;11.40;;
77051;SDS011;65980;44.898;8.602;2023-10-31T02:17:59;19.35;;;11.65;;
77051;SDS011;65980;44.898;8.602;2023-10-31T02:21:04;17.42;;;11.43;;
77051;SDS011;65980;44.898;8.602;2023-10-31T02:24:09;16.92;;;10.85;;
77051;SDS011;65980;44.898;8.602;2023-10-31T02:27:13;19.23;;;11.63;;
77051;SDS011;65980;44.898;8.602;2023-10-31T02:33:47;17.63;;;12.27;;
77051;SDS011;65980;44.898;8.602;2023-10-31T02:36:51;22.75;;;12.13;;
77051;SDS011;65980;44.898;8.602;2023-10-31T02:39:55;17.63;;;11.25;;
77051;SDS011;65980;44.898;8.602;2023-10-31T02:46:03;18.38;;;12.07;;
77051;SDS011;65980;44.898;8.602;2023-10-31T02:49:08;20.80;;;12.75;;
77051;SDS011;65980;44.898;8.602;2023-10-31T02:52:14;19.13;;;12.10;;
77051;SDS011;65980;44.898;8.602;2023-10-31T02:55:18;19.05;;;12.48;;
77051;SDS011;65980;44.898;8.602;2023-10-31T02:58:22;20.08;;;12.55;;
77051;SDS011;65980;44.898;8.602;2023-10-31T03:01:30;19.45;;;12.52;;
77051;SDS011;65980;44.898;8.602;2023-10-31T03:04:35;25.05;;;13.60;;
77051;SDS011;65980;44.898;8.602;2023-10-31T03:07:40;21.98;;;13.07;;
77051;SDS011;65980;44.898;8.602;2023-10-31T03:10:44;23.20;;;12.75;;
77051;SDS011;65980;44.898;8.602;2023-10-31T03:13:49;22.60;;;12.55;;
77051;SDS011;65980;44.898;8.602;2023-10-31T03:16:54;25.05;;;12.65;;
77051;SDS011;65980;44.898;8.602;2023-10-31T03:19:58;21.42;;;13.40;;
77051;SDS011;65980;44.898;8.602;2023-10-31T03:23:04;23.30;;;13.68;;
77051;SDS011;65980;44.898;8.602;2023-10-31T03:26:08;23.33;;;13.27;;
77051;SDS011;65980;44.898;8.602;2023-10-31T03:29:11;27.33;;;14.02;;
77051;SDS011;65980;44.898;8.602;2023-10-31T03:32:17;23.02;;;14.00;;
77051;SDS011;65980;44.898;8.602;2023-10-31T03:35:21;21.75;;;13.73;;
77051;SDS011;65980;44.898;8.602;2023-10-31T03:38:25;22.77;;;13.57;;
77051;SDS011;65980;44.898;8.602;2023-10-31T03:41:29;20.02;;;12.32;;
77051;SDS011;65980;44.898;8.602;2023-10-31T03:47:36;24.58;;;13.27;;
77051;SDS011;65980;44.898;8.602;2023-10-31T03:50:41;26.60;;;13.25;;
77051;SDS011;65980;44.898;8.602;2023-10-31T03:53:46;23.00;;;13.07;;
77051;SDS011;65980;44.898;8.602;2023-10-31T03:56:52;22.80;;;14.52;;
77051;SDS011;65980;44.898;8.602;2023-10-31T03:59:55;25.38;;;14.45;;
77051;SDS011;65980;44.898;8.602;2023-10-31T04:03:00;26.45;;;15.07;;
77051;SDS011;65980;44.898;8.602;2023-10-31T04:06:05;31.38;;;17.20;;
77051;SDS011;65980;44.898;8.602;2023-10-31T04:09:09;32.65;;;17.08;;
77051;SDS011;65980;44.898;8.602;2023-10-31T04:12:14;29.00;;;16.13;;
77051;SDS011;65980;44.898;8.602;2023-10-31T04:15:18;29.58;;;17.15;;
77051;SDS011;65980;44.898;8.602;2023-10-31T04:18:21;31.35;;;17.25;;
77051;SDS011;65980;44.898;8.602;2023-10-31T04:21:26;27.75;;;16.48;;
77051;SDS011;65980;44.898;8.602;2023-10-31T04:24:31;30.83;;;17.50;;
77051;SDS011;65980;44.898;8.602;2023-10-31T04:27:35;27.02;;;15.90;;
77051;SDS011;65980;44.898;8.602;2023-10-31T04:30:40;27.55;;;16.45;;
77051;SDS011;65980;44.898;8.602;2023-10-31T04:33:43;27.05;;;16.10;;
77051;SDS011;65980;44.898;8.602;2023-10-31T04:36:48;29.52;;;16.58;;
77051;SDS011;65980;44.898;8.602;2023-10-31T04:39:53;26.77;;;15.38;;
77051;SDS011;65980;44.898;8.602;2023-10-31T04:42:58;27.98;;;16.25;;
77051;SDS011;65980;44.898;8.602;2023-10-31T04:49:06;24.52;;;14.30;;
77051;SDS011;65980;44.898;8.602;2023-10-31T04:52:10;25.85;;;13.77;;
77051;SDS011;65980;44.898;8.602;2023-10-31T04:55:14;21.35;;;12.35;;
77051;SDS011;65980;44.898;8.602;2023-10-31T04:58:18;16.13;;;10.27;;
77051;SDS011;65980;44.898;8.602;2023-10-31T05:01:22;16.23;;;7.97;;
77051;SDS011;65980;44.898;8.602;2023-10-31T05:04:25;13.13;;;7.20;;
77051;SDS011;65980;44.898;8.602;2023-10-31T05:07:30;11.18;;;5.97;;
77051;SDS011;65980;44.898;8.602;2023-10-31T05:10:36;9.65;;;4.63;;
77051;SDS011;65980;44.898;8.602;2023-10-31T05:13:40;4.75;;;3.38;;
77051;SDS011;65980;44.898;8.602;2023-10-31T05:22:52;2.45;;;1.58;;
77051;SDS011;65980;44.898;8.602;2023-10-31T05:25:57;1.60;;;1.27;;
77051;SDS011;65980;44.898;8.602;2023-10-31T05:29:02;2.22;;;1.30;;
77051;SDS011;65980;44.898;8.602;2023-10-31T05:32:05;1.95;;;1.10;;
77051;SDS011;65980;44.898;8.602;2023-10-31T05:35:10;1.13;;;0.80;;
77051;SDS011;65980;44.898;8.602;2023-10-31T05:38:15;0.85;;;0.70;;
77051;SDS011;65980;44.898;8.602;2023-10-31T05:41:19;1.25;;;0.70;;
77051;SDS011;65980;44.898;8.602;2023-10-31T05:44:24;0.80;;;0.60;;
77051;SDS011;65980;44.898;8.602;2023-10-31T05:47:27;0.30;;;0.30;;
77051;SDS011;65980;44.898;8.602;2023-10-31T05:50:31;0.60;;;0.50;;
77051;SDS011;65980;44.898;8.602;2023-10-31T05:53:36;0.63;;;0.50;;
77051;SDS011;65980;44.898;8.602;2023-10-31T05:56:41;0.50;;;0.40;;
77051;SDS011;65980;44.898;8.602;2023-10-31T05:59:47;0.88;;;0.52;;
77051;SDS011;65980;44.898;8.602;2023-10-31T06:02:51;0.57;;;0.40;;
77051;SDS011;65980;44.898;8.602;2023-10-31T06:05:55;0.85;;;0.60;;
77051;SDS011;65980;44.898;8.602;2023-10-31T06:08:59;0.77;;;0.60;;
77051;SDS011;65980;44.898;8.602;2023-10-31T06:12:04;0.70;;;0.50;;
77051;SDS011;65980;44.898;8.602;2023-10-31T06:15:10;0.57;;;0.47;;
77051;SDS011;65980;44.898;8.602;2023-10-31T06:18:13;0.60;;;0.60;;
77051;SDS011;65980;44.898;8.602;2023-10-31T06:21:18;0.73;;;0.50;;
77051;SDS011;65980;44.898;8.602;2023-10-31T06:24:22;0.93;;;0.40;;
77051;SDS011;65980;44.898;8.602;2023-10-31T06:27:26;2.60;;;1.67;;
77051;SDS011;65980;44.898;8.602;2023-10-31T06:30:33;0.60;;;0.50;;
77051;SDS011;65980;44.898;8.602;2023-10-31T06:33:37;0.40;;;0.40;;
77051;SDS011;65980;44.898;8.602;2023-10-31T06:36:42;1.88;;;0.38;;
77051;SDS011;65980;44.898;8.602;2023-10-31T06:39:46;1.25;;;0.43;;
77051;SDS011;65980;44.898;8.602;2023-10-31T06:42:50;4.20;;;0.60;;
77051;SDS011;65980;44.898;8.602;2023-10-31T06:45:56;1.67;;;0.70;;
77051;SDS011;65980;44.898;8.602;2023-10-31T06:57:53;1.35;;;0.70;;
77051;SDS011;65980;44.898;8.602;2023-10-31T07:00:57;1.50;;;0.70;;
77051;SDS011;65980;44.898;8.602;2023-10-31T07:04:04;0.73;;;0.60;;
77051;SDS011;65980;44.898;8.602;2023-10-31T07:07:08;1.00;;;0.60;;
77051;SDS011;65980;44.898;8.602;2023-10-31T07:13:41;1.63;;;1.27;;
77051;SDS011;65980;44.898;8.602;2023-10-31T07:16:45;2.67;;;1.73;;
77051;SDS011;65980;44.898;8.602;2023-10-31T07:19:51;3.78;;;1.40;;
77051;SDS011;65980;44.898;8.602;2023-10-31T07:22:55;1.33;;;1.02;;
77051;SDS011;65980;44.898;8.602;2023-10-31T07:26:01;1.00;;;0.82;;
77051;SDS011;65980;44.898;8.602;2023-10-31T07:29:05;0.77;;;0.75;;
77051;SDS011;65980;44.898;8.602;2023-10-31T07:32:09;1.15;;;0.80;;
77051;SDS011;65980;44.898;8.602;2023-10-31T07:35:14;1.23;;;0.80;;
77051;SDS011;65980;44.898;8.602;2023-10-31T07:38:19;4.60;;;0.65;;
77051;SDS011;65980;44.898;8.602;2023-10-31T07:41:28;3.20;;;0.70;;
77051;SDS011;65980;44.898;8.602;2023-10-31T07:44:32;1.33;;;0.73;;
77051;SDS011;65980;44.898;8.602;2023-10-31T07:47:37;1.00;;;0.52;;
77051;SDS011;65980;44.898;8.602;2023-10-31T07:50:52;2.03;;;0.70;;
77051;SDS011;65980;44.898;8.602;2023-10-31T07:53:59;1.10;;;0.70;;
77051;SDS011;65980;44.898;8.602;2023-10-31T07:57:04;0.80;;;0.68;;
77051;SDS011;65980;44.898;8.602;2023-10-31T08:00:09;2.00;;;1.20;;
77051;SDS011;65980;44.898;8.602;2023-10-31T08:03:17;1.35;;;0.95;;
77051;SDS011;65980;44.898;8.602;2023-10-31T08:06:21;1.00;;;0.80;;
77051;SDS011;65980;44.898;8.602;2023-10-31T08:09:26;2.72;;;0.77;;
77051;SDS011;65980;44.898;8.602;2023-10-31T08:12:33;1.40;;;0.80;;
77051;SDS011;65980;44.898;8.602;2023-10-31T08:15:38;3.88;;;0.70;;
77051;SDS011;65980;44.898;8.602;2023-10-31T08:18:44;1.20;;;0.70;;
77051;SDS011;65980;44.898;8.602;2023-10-31T08:21:49;1.92;;;0.75;;
77051;SDS011;65980;44.898;8.602;2023-10-31T08:24:54;1.38;;;0.57;;
77051;SDS011;65980;44.898;8.602;2023-10-31T08:27:59;2.05;;;0.90;;
77051;SDS011;65980;44.898;8.602;2023-10-31T08:31:09;0.60;;;0.60;;
77051;SDS011;65980;44.898;8.602;2023-10-31T08:34:16;1.23;;;0.88;;
77051;SDS011;65980;44.898;8.602;2023-10-31T08:37:38;1.45;;;0.75;;
77051;SDS011;65980;44.898;8.602;2023-10-31T08:40:53;3.30;;;0.82;;
77051;SDS011;65980;44.898;8.602;2023-10-31T08:44:10;0.90;;;0.50;;
77051;SDS011;65980;44.898;8.602;2023-10-31T08:47:26;1.77;;;0.75;;
77051;SDS011;65980;44.898;8.602;2023-10-31T08:50:38;2.50;;;1.13;;
77051;SDS011;65980;44.898;8.602;2023-10-31T08:53:50;1.77;;;0.80;;
77051;SDS011;65980;44.898;8.602;2023-10-31T08:56:54;2.50;;;0.93;;
77051;SDS011;65980;44.898;8.602;2023-10-31T08:59:59;5.82;;;0.90;;
77051;SDS011;65980;44.898;8.602;2023-10-31T09:03:03;1.02;;;0.82;;
77051;SDS011;65980;44.898;8.602;2023-10-31T09:06:08;1.10;;;0.80;;
77051;SDS011;65980;44.898;8.602;2023-10-31T09:09:12;2.22;;;1.05;;
77051;SDS011;65980;44.898;8.602;2023-10-31T09:12:25;0.85;;;0.70;;
77051;SDS011;65980;44.898;8.602;2023-10-31T09:15:29;1.02;;;0.80;;
77051;SDS011;65980;44.898;8.602;2023-10-31T09:18:35;2.17;;;0.65;;
77051;SDS011;65980;44.898;8.602;2023-10-31T09:21:40;0.50;;;0.50;;
77051;SDS011;65980;44.898;8.602;2023-10-31T09:24:45;0.50;;;0.40;;
77051;SDS011;65980;44.898;8.602;2023-10-31T09:27:49;0.60;;;0.50;;
77051;SDS011;65980;44.898;8.602;2023-10-31T09:31:05;0.68;;;0.45;;
77051;SDS011;65980;44.898;8.602;2023-10-31T09:34:12;3.33;;;0.77;;
77051;SDS011;65980;44.898;8.602;2023-10-31T09:37:17;0.95;;;0.50;;
77051;SDS011;65980;44.898;8.602;2023-10-31T09:40:22;0.50;;;0.40;;
77051;SDS011;65980;44.898;8.602;2023-10-31T09:43:27;0.47;;;0.40;;
77051;SDS011;65980;44.898;8.602;2023-10-31T09:46:31;3.85;;;0.40;;
77051;SDS011;65980;44.898;8.602;2023-10-31T09:49:35;0.93;;;0.50;;
77051;SDS011;65980;44.898;8.602;2023-10-31T09:52:40;0.40;;;0.40;;
77051;SDS011;65980;44.898;8.602;2023-10-31T09:59:14;0.68;;;0.50;;
77051;SDS011;65980;44.898;8.602;2023-10-31T10:02:21;0.40;;;0.30;;
77051;SDS011;65980;44.898;8.602;2023-10-31T10:05:25;2.05;;;0.40;;
77051;SDS011;65980;44.898;8.602;2023-10-31T10:08:31;0.40;;;0.40;;
77051;SDS011;65980;44.898;8.602;2023-10-31T10:11:36;0.57;;;0.38;;
77051;SDS011;65980;44.898;8.602;2023-10-31T10:14:40;0.50;;;0.40;;
77051;SDS011;65980;44.898;8.602;2023-10-31T10:17:48;1.25;;;0.40;;
77051;SDS011;65980;44.898;8.602;2023-10-31T10:20:56;0.28;;;0.28;;
77051;SDS011;65980;44.898;8.602;2023-10-31T10:24:07;0.50;;;0.40;;
77051;SDS011;65980;44.898;8.602;2023-10-31T10:27:12;1.42;;;0.47;;
77051;SDS011;65980;44.898;8.602;2023-10-31T10:30:17;1.00;;;0.50;;
77051;SDS011;65980;44.898;8.602;2023-10-31T10:33:22;0.40;;;0.40;;
77051;SDS011;65980;44.898;8.602;2023-10-31T10:36:28;0.80;;;0.40;;
77051;SDS011;65980;44.898;8.602;2023-10-31T10:39:44;1.50;;;0.40;;
77051;SDS011;65980;44.898;8.602;2023-10-31T10:46:34;1.55;;;0.60;;
77051;SDS011;65980;44.898;8.602;2023-10-31T10:49:43;0.57;;;0.50;;
77051;SDS011;65980;44.898;8.602;2023-10-31T10:56:34;0.38;;;0.38;;
77051;SDS011;65980;44.898;8.602;2023-10-31T10:59:47;0.35;;;0.30;;
77051;SDS011;65980;44.898;8.602;2023-10-31T11:03:10;2.65;;;0.50;;
77051;SDS011;65980;44.898;8.602;2023-10-31T11:06:15;2.13;;;0.40;;
77051;SDS011;65980;44.898;8.602;2023-10-31T11:09:19;0.60;;;0.40;;
77051;SDS011;65980;44.898;8.602;2023-10-31T11:12:25;0.85;;;0.50;;
77051;SDS011;65980;44.898;8.602;2023-10-31T11:15:31;0.63;;;0.32;;
77051;SDS011;65980;44.898;8.602;2023-10-31T11:18:36;0.80;;;0.60;;
77051;SDS011;65980;44.898;8.602;2023-10-31T11:21:57;0.60;;;0.50;;
77051;SDS011;65980;44.898;8.602;2023-10-31T11:25:23;0.50;;;0.40;;
77051;SDS011;65980;44.898;8.602;2023-10-31T11:28:28;0.50;;;0.30;;
77051;SDS011;65980;44.898;8.602;2023-10-31T11:31:37;0.38;;;0.30;;
77051;SDS011;65980;44.898;8.602;2023-10-31T11:34:42;2.53;;;0.40;;
77051;SDS011;65980;44.898;8.602;2023-10-31T11:37:48;1.13;;;0.40;;
77051;SDS011;65980;44.898;8.602;2023-10-31T11:41:00;2.53;;;0.38;;
77051;SDS011;65980;44.898;8.602;2023-10-31T11:44:06;0.63;;;0.40;;
77051;SDS011;65980;44.898;8.602;2023-10-31T11:47:16;0.22;;;0.22;;
77051;SDS011;65980;44.898;8.602;2023-10-31T11:50:22;0.30;;;0.30;;
77051;SDS011;65980;44.898;8.602;2023-10-31T11:53:28;0.60;;;0.38;;
77051;SDS011;65980;44.898;8.602;2023-10-31T11:56:34;0.40;;;0.30;;
77051;SDS011;65980;44.898;8.602;2023-10-31T12:03:09;2.78;;;0.30;;
77051;SDS011;65980;44.898;8.602;2023-10-31T12:06:25;1.85;;;0.40;;
77051;SDS011;65980;44.898;8.602;2023-10-31T12:09:30;2.88;;;0.40;;
77051;SDS011;65980;44.898;8.602;2023-10-31T12:12:37;4.15;;;0.30;;
77051;SDS011;65980;44.898;8.602;2023-10-31T12:24:34;0.57;;;0.50;;
77051;SDS011;65980;44.898;8.602;2023-10-31T12:32:11;0.45;;;0.40;;
77051;SDS011;65980;44.898;8.602;2023-10-31T12:39:07;0.30;;;0.30;;
77051;SDS011;65980;44.898;8.602;2023-10-31T12:42:13;0.45;;;0.30;;
77051;SDS011;65980;44.898;8.602;2023-10-31T12:45:17;4.63;;;0.60;;
77051;SDS011;65980;44.898;8.602;2023-10-31T12:59:55;0.90;;;0.40;;
77051;SDS011;65980;44.898;8.602;2023-10-31T13:06:33;1.08;;;0.50;;
77051;SDS011;65980;44.898;8.602;2023-10-31T13:16:17;2.15;;;0.40;;
77051;SDS011;65980;44.898;8.602;2023-10-31T13:19:24;0.80;;;0.40;;
77051;SDS011;65980;44.898;8.602;2023-10-31T13:22:34;0.93;;;0.38;;
77051;SDS011;65980;44.898;8.602;2023-10-31T13:25:42;0.77;;;0.50;;
77051;SDS011;65980;44.898;8.602;2023-10-31T13:28:47;0.60;;;0.40;;
77051;SDS011;65980;44.898;8.602;2023-10-31T13:31:54;0.77;;;0.60;;
77051;SDS011;65980;44.898;8.602;2023-10-31T13:35:06;3.13;;;0.70;;
77051;SDS011;65980;44.898;8.602;2023-10-31T13:38:22;1.10;;;0.60;;
77051;SDS011;65980;44.898;8.602;2023-10-31T13:45:44;1.75;;;0.52;;
77051;SDS011;65980;44.898;8.602;2023-10-31T13:48:54;1.00;;;0.60;;
77051;SDS011;65980;44.898;8.602;2023-10-31T13:56:05;4.95;;;0.73;;
77051;SDS011;65980;44.898;8.602;2023-10-31T13:59:10;1.02;;;0.55;;
77051;SDS011;65980;44.898;8.602;2023-10-31T14:02:18;1.88;;;0.52;;
77051;SDS011;65980;44.898;8.602;2023-10-31T14:05:26;1.15;;;0.60;;
77051;SDS011;65980;44.898;8.602;2023-10-31T14:08:30;3.75;;;1.33;;
77051;SDS011;65980;44.898;8.602;2023-10-31T14:11:34;1.67;;;0.60;;
77051;SDS011;65980;44.898;8.602;2023-10-31T14:14:42;1.33;;;0.60;;
77051;SDS011;65980;44.898;8.602;2023-10-31T14:21:37;2.47;;;1.10;;
77051;SDS011;65980;44.898;8.602;2023-10-31T14:24:47;1.38;;;0.60;;
77051;SDS011;65980;44.898;8.602;2023-10-31T14:27:52;1.75;;;0.85;;
77051;SDS011;65980;44.898;8.602;2023-10-31T14:30:58;2.58;;;1.20;;
77051;SDS011;65980;44.898;8.602;2023-10-31T14:34:06;2.13;;;0.82;;
77051;SDS011;65980;44.898;8.602;2023-10-31T14:37:17;6.30;;;1.38;;
77051;SDS011;65980;44.898;8.602;2023-10-31T14:40:28;2.40;;;1.30;;
77051;SDS011;65980;44.898;8.602;2023-10-31T14:43:33;2.97;;;1.00;;
77051;SDS011;65980;44.898;8.602;2023-10-31T14:46:38;4.57;;;1.55;;
77051;SDS011;65980;44.898;8.602;2023-10-31T14:49:43;3.55;;;1.20;;
77051;SDS011;65980;44.898;8.602;2023-10-31T14:52:48;1.70;;;0.90;;
77051;SDS011;65980;44.898;8.602;2023-10-31T14:55:55;2.15;;;1.08;;
77051;SDS011;65980;44.898;8.602;2023-10-31T14:59:01;6.28;;;0.98;;
77051;SDS011;65980;44.898;8.602;2023-10-31T15:02:08;3.10;;;1.13;;
77051;SDS011;65980;44.898;8.602;2023-10-31T15:05:13;3.80;;;1.58;;
77051;SDS011;65980;44.898;8.602;2023-10-31T15:08:17;5.07;;;2.00;;
77051;SDS011;65980;44.898;8.602;2023-10-31T15:11:22;4.25;;;1.15;;
77051;SDS011;65980;44.898;8.602;2023-10-31T15:14:27;2.35;;;0.90;;
77051;SDS011;65980;44.898;8.602;2023-10-31T15:17:32;3.10;;;0.90;;
77051;SDS011;65980;44.898;8.602;2023-10-31T15:20:37;4.93;;;1.05;;
77051;SDS011;65980;44.898;8.602;2023-10-31T15:23:41;3.97;;;0.80;;
77051;SDS011;65980;44.898;8.602;2023-10-31T15:26:46;8.63;;;1.00;;
77051;SDS011;65980;44.898;8.602;2023-10-31T15:29:50;7.75;;;1.10;;
77051;SDS011;65980;44.898;8.602;2023-10-31T15:32:55;6.00;;;1.00;;
77051;SDS011;65980;44.898;8.602;2023-10-31T15:36:00;5.10;;;1.33;;
77051;SDS011;65980;44.898;8.602;2023-10-31T15:39:05;4.05;;;0.98;;
77051;SDS011;65980;44.898;8.602;2023-10-31T15:42:10;7.72;;;1.38;;
77051;SDS011;65980;44.898;8.602;2023-10-31T15:45:14;6.15;;;1.70;;
77051;SDS011;65980;44.898;8.602;2023-10-31T15:48:19;4.50;;;0.95;;
77051;SDS011;65980;44.898;8.602;2023-10-31T15:51:24;6.20;;;1.30;;
77051;SDS011;65980;44.898;8.602;2023-10-31T15:54:32;5.68;;;1.38;;
77051;SDS011;65980;44.898;8.602;2023-10-31T15:57:37;7.20;;;1.80;;
77051;SDS011;65980;44.898;8.602;2023-10-31T16:00:42;6.88;;;1.70;;
77051;SDS011;65980;44.898;8.602;2023-10-31T16:03:47;4.45;;;1.90;;
77051;SDS011;65980;44.898;8.602;2023-10-31T16:06:51;7.18;;;1.75;;
77051;SDS011;65980;44.898;8.602;2023-10-31T16:09:55;7.18;;;1.40;;
77051;SDS011;65980;44.898;8.602;2023-10-31T16:12:59;5.97;;;1.63;;
77051;SDS011;65980;44.898;8.602;2023-10-31T16:16:03;10.02;;;2.40;;
77051;SDS011;65980;44.898;8.602;2023-10-31T16:19:08;6.80;;;2.03;;
77051;SDS011;65980;44.898;8.602;2023-10-31T16:22:12;7.30;;;1.42;;
77051;SDS011;65980;44.898;8.602;2023-10-31T16:25:19;7.88;;;1.40;;
77051;SDS011;65980;44.898;8.602;2023-10-31T16:28:24;4.35;;;1.30;;
77051;SDS011;65980;44.898;8.602;2023-10-31T16:31:29;8.63;;;1.40;;
77051;SDS011;65980;44.898;8.602;2023-10-31T16:34:34;10.27;;;1.42;;
77051;SDS011;65980;44.898;8.602;2023-10-31T16:37:38;10.57;;;1.95;;
77051;SDS011;65980;44.898;8.602;2023-10-31T16:40:43;5.65;;;1.30;;
77051;SDS011;65980;44.898;8.602;2023-10-31T16:43:48;5.32;;;1.55;;
77051;SDS011;65980;44.898;8.602;2023-10-31T16:46:53;9.65;;;2.28;;
77051;SDS011;65980;44.898;8.602;2023-10-31T16:49:58;8.95;;;1.98;;
77051;SDS011;65980;44.898;8.602;2023-10-31T16:53:03;9.95;;;1.95;;
77051;SDS011;65980;44.898;8.602;2023-10-31T16:56:09;6.07;;;1.60;;
77051;SDS011;65980;44.898;8.602;2023-10-31T16:59:14;6.40;;;1.50;;
77051;SDS011;65980;44.898;8.602;2023-10-31T17:02:20;14.75;;;2.05;;
77051;SDS011;65980;44.898;8.602;2023-10-31T17:05:27;16.40;;;7.63;;
77051;SDS011;65980;44.898;8.602;2023-10-31T17:08:31;8.43;;;3.00;;
77051;SDS011;65980;44.898;8.602;2023-10-31T17:11:37;11.93;;;3.78;;
77051;SDS011;65980;44.898;8.602;2023-10-31T17:14:42;11.30;;;3.95;;
77051;SDS011;65980;44.898;8.602;2023-10-31T17:21:23;24.40;;;7.38;;
77051;SDS011;65980;44.898;8.602;2023-10-31T17:24:35;11.48;;;4.38;;
77051;SDS011;65980;44.898;8.602;2023-10-31T17:27:43;14.43;;;4.38;;
77051;SDS011;65980;44.898;8.602;2023-10-31T17:30:50;15.00;;;5.72;;
77051;SDS011;65980;44.898;8.602;2023-10-31T17:33:56;12.38;;;4.15;;
77051;SDS011;65980;44.898;8.602;2023-10-31T17:37:00;11.85;;;3.13;;
77051;SDS011;65980;44.898;8.602;2023-10-31T17:40:06;8.60;;;2.25;;
77051;SDS011;65980;44.898;8.602;2023-10-31T17:43:13;8.38;;;2.67;;
77051;SDS011;65980;44.898;8.602;2023-10-31T17:47:06;6.97;;;2.45;;
77051;SDS011;65980;44.898;8.602;2023-10-31T17:50:12;9.82;;;2.70;;
77051;SDS011;65980;44.898;8.602;2023-10-31T17:53:17;12.13;;;2.47;;
77051;SDS011;65980;44.898;8.602;2023-10-31T17:56:22;12.05;;;2.42;;
77051;SDS011;65980;44.898;8.602;2023-10-31T17:59:25;7.28;;;2.17;;
77051;SDS011;65980;44.898;8.602;2023-10-31T18:02:30;6.28;;;2.90;;
77051;SDS011;65980;44.898;8.602;2023-10-31T18:05:35;18.15;;;4.63;;
77051;SDS011;65980;44.898;8.602;2023-10-31T18:08:40;10.30;;;3.63;;
77051;SDS011;65980;44.898;8.602;2023-10-31T18:11:45;9.80;;;3.53;;
77051;SDS011;65980;44.898;8.602;2023-10-31T18:14:50;12.88;;;3.45;;
77051;SDS011;65980;44.898;8.602;2023-10-31T18:17:54;13.65;;;4.60;;
77051;SDS011;65980;44.898;8.602;2023-10-31T18:20:59;16.42;;;5.32;;
77051;SDS011;65980;44.898;8.602;2023-10-31T18:24:08;16.08;;;5.40;;
77051;SDS011;65980;44.898;8.602;2023-10-31T18:27:21;19.70;;;7.80;;
77051;SDS011;65980;44.898;8.602;2023-10-31T18:30:31;22.75;;;8.80;;
77051;SDS011;65980;44.898;8.602;2023-10-31T18:33:38;17.48;;;6.38;;
77051;SDS011;65980;44.898;8.602;2023-10-31T18:36:46;16.25;;;5.32;;
77051;SDS011;65980;44.898;8.602;2023-10-31T18:39:55;14.93;;;5.65;;
77051;SDS011;65980;44.898;8.602;2023-10-31T18:43:00;14.98;;;5.35;;
77051;SDS011;65980;44.898;8.602;2023-10-31T18:46:09;12.57;;;4.53;;
77051;SDS011;65980;44.898;8.602;2023-10-31T18:49:16;10.93;;;3.88;;
77051;SDS011;65980;44.898;8.602;2023-10-31T18:52:32;12.90;;;5.68;;
77051;SDS011;65980;44.898;8.602;2023-10-31T18:55:39;10.30;;;3.30;;
77051;SDS011;65980;44.898;8.602;2023-10-31T18:58:43;10.68;;;3.30;;
77051;SDS011;65980;44.898;8.602;2023-10-31T19:01:51;12.75;;;3.85;;
77051;SDS011;65980;44.898;8.602;2023-10-31T19:05:00;9.88;;;3.63;;
77051;SDS011;65980;44.898;8.602;2023-10-31T19:08:07;8.98;;;3.20;;
77051;SDS011;65980;44.898;8.602;2023-10-31T19:11:12;9.13;;;3.05;;
77051;SDS011;65980;44.898;8.602;2023-10-31T19:14:16;19.88;;;6.05;;
77051;SDS011;65980;44.898;8.602;2023-10-31T19:17:19;17.20;;;5.63;;
77051;SDS011;65980;44.898;8.602;2023-10-31T19:20:24;16.15;;;5.35;;
77051;SDS011;65980;44.898;8.602;2023-10-31T19:23:29;14.15;;;6.40;;
77051;SDS011;65980;44.898;8.602;2023-10-31T19:26:33;13.73;;;6.40;;
77051;SDS011;65980;44.898;8.602;2023-10-31T19:29:38;21.35;;;8.98;;
77051;SDS011;65980;44.898;8.602;2023-10-31T19:32:43;27.88;;;11.30;;
77051;SDS011;65980;44.898;8.602;2023-10-31T19:35:47;22.52;;;8.77;;
77051;SDS011;65980;44.898;8.602;2023-10-31T19:38:52;24.77;;;9.73;;
77051;SDS011;65980;44.898;8.602;2023-10-31T19:41:57;18.90;;;7.57;;
77051;SDS011;65980;44.898;8.602;2023-10-31T19:45:05;18.42;;;7.80;;
77051;SDS011;65980;44.898;8.602;2023-10-31T19:48:10;18.23;;;7.22;;
77051;SDS011;65980;44.898;8.602;2023-10-31T19:51:15;16.00;;;5.32;;
77051;SDS011;65980;44.898;8.602;2023-10-31T19:54:21;13.23;;;4.95;;
77051;SDS011;65980;44.898;8.602;2023-10-31T19:57:27;18.67;;;5.05;;
77051;SDS011;65980;44.898;8.602;2023-10-31T20:00:31;17.20;;;6.40;;
77051;SDS011;65980;44.898;8.602;2023-10-31T20:03:35;16.88;;;6.35;;
77051;SDS011;65980;44.898;8.602;2023-10-31T20:06:39;16.77;;;7.18;;
77051;SDS011;65980;44.898;8.602;2023-10-31T20:09:46;22.63;;;9.27;;
77051;SDS011;65980;44.898;8.602;2023-10-31T20:12:52;29.95;;;13.18;;
77051;SDS011;65980;44.898;8.602;2023-10-31T20:15:57;18.52;;;7.68;;
77051;SDS011;65980;44.898;8.602;2023-10-31T20:19:01;19.40;;;7.57;;
77051;SDS011;65980;44.898;8.602;2023-10-31T20:22:07;19.85;;;7.18;;